Time,TemperatureF,DewpointF,PressureIn,WindDirection,WindDirectionDegrees,WindSpeedMPH,WindSpeedGustMPH,Humidity,HourlyPrecipIn,Conditions,Clouds,dailyrainin,SoftwareType,DateUTC
2013-03-16 00:01:00,40.0,29.0,-100.00,NNW,340,1.0,2.0,63,0.00,,,-99.99,,2013-03-16 06:01:00,
2013-03-16 00:12:00,-999.0,-99.9,-100.00,NNW,342,1.0,1.0,-999,-99.99,,,-99.99,,2013-03-16 06:12:00,
2013-03-16 00:21:00,40.0,29.0,-100.00,WNW,295,1.0,2.0,63,0.00,,,-99.99,,2013-03-16 06:21:00,
2013-03-16 00:31:00,40.0,28.0,-100.00,WNW,288,2.0,3.0,63,0.00,,,-99.99,,2013-03-16 06:31:00,
2013-03-16 00:41:00,40.0,29.0,-100.00,WNW,282,3.0,4.0,65,0.00,,,-99.99,,2013-03-16 06:41:00,
2013-03-16 00:51:00,41.0,28.0,-100.00,NW,311,1.0,2.0,61,0.00,,,-99.99,,2013-03-16 06:51:00,
2013-03-16 01:01:00,41.0,28.0,-100.00,NW,313,1.0,1.0,60,0.00,,,-99.99,,2013-03-16 07:01:00,
2013-03-16 01:11:00,41.0,28.0,-100.00,NNW,344,1.0,2.0,60,0.00,,,-99.99,,2013-03-16 07:11:00,
2013-03-16 01:21:00,41.0,28.0,-100.00,NW,325,1.0,2.0,60,0.00,,,-99.99,,2013-03-16 07:21:00,
2013-03-16 01:31:00,40.0,27.0,-100.00,NNW,329,0.0,1.0,60,0.00,,,-99.99,,2013-03-16 07:31:00,
2013-03-16 01:41:00,37.0,29.0,-100.00,East,89,4.0,6.0,72,0.00,,,-99.99,,2013-03-16 07:41:00,
2013-03-16 01:52:00,37.0,30.0,-100.00,ESE,113,6.0,7.0,75,0.00,,,-99.99,,2013-03-16 07:52:00,
2013-03-16 02:01:00,37.0,30.0,-100.00,ESE,121,6.0,7.0,76,0.00,,,-99.99,,2013-03-16 08:01:00,
2013-03-16 02:11:00,36.0,30.0,-100.00,ESE,120,5.0,7.0,78,0.00,,,-99.99,,2013-03-16 08:11:00,
2013-03-16 02:22:00,36.0,30.0,-100.00,ESE,114,4.0,4.0,79,0.00,,,-99.99,,2013-03-16 08:22:00,
2013-03-16 02:31:00,36.0,30.0,-100.00,East,99,2.0,4.0,81,0.00,,,-99.99,,2013-03-16 08:31:00,
2013-03-16 02:41:00,36.0,31.0,-100.00,ESE,117,4.0,8.0,81,0.00,,,-99.99,,2013-03-16 08:41:00,
2013-03-16 02:51:00,36.0,31.0,-100.00,SE,127,7.0,11.0,80,0.00,,,-99.99,,2013-03-16 08:51:00,
2013-03-16 03:01:00,37.0,30.0,-100.00,SE,126,7.0,9.0,78,0.00,,,-99.99,,2013-03-16 09:01:00,
2013-03-16 03:11:00,37.0,30.0,-100.00,SE,124,7.0,9.0,78,0.00,,,-99.99,,2013-03-16 09:11:00,
2013-03-16 03:21:00,36.0,30.0,-100.00,SE,136,7.0,9.0,77,0.00,,,-99.99,,2013-03-16 09:21:00,
2013-03-16 03:32:00,36.0,30.0,-100.00,SE,126,7.0,7.0,78,0.00,,,-99.99,,2013-03-16 09:32:00,
2013-03-16 03:43:00,-999.0,-99.9,-100.00,SE,145,7.0,9.0,-999,-99.99,,,-99.99,,2013-03-16 09:43:00,
2013-03-16 03:52:00,36.0,30.0,-100.00,SE,133,7.0,9.0,77,0.00,,,-99.99,,2013-03-16 09:52:00,
2013-03-16 04:03:00,36.0,30.0,-100.00,ESE,116,7.0,8.0,78,0.00,,,-99.99,,2013-03-16 10:03:00,
2013-03-16 04:11:00,36.0,30.0,-100.00,ESE,119,6.0,7.0,78,0.00,,,-99.99,,2013-03-16 10:11:00,
2013-03-16 04:22:00,36.0,29.0,-100.00,SE,140,4.0,6.0,76,0.00,,,-99.99,,2013-03-16 10:22:00,
2013-03-16 04:32:00,36.0,30.0,-100.00,NNE,25,1.0,3.0,79,0.00,,,-99.99,,2013-03-16 10:32:00,
2013-03-16 04:41:00,35.0,30.0,-100.00,ESE,117,3.0,6.0,79,0.00,,,-99.99,,2013-03-16 10:41:00,
2013-03-16 04:52:00,35.0,30.0,-100.00,ESE,119,6.0,7.0,83,0.00,,,-99.99,,2013-03-16 10:52:00,
2013-03-16 05:02:00,33.0,30.0,-100.00,ESE,116,4.0,6.0,87,0.00,,,-99.99,,2013-03-16 11:02:00,
2013-03-16 05:11:00,33.0,30.0,-100.00,ESE,123,3.0,5.0,88,0.00,,,-99.99,,2013-03-16 11:11:00,
2013-03-16 05:21:00,33.0,30.0,-100.00,SSE,152,4.0,6.0,89,0.00,,,-99.99,,2013-03-16 11:21:00,
2013-03-16 05:31:00,33.0,30.0,-100.00,South,176,3.0,4.0,90,0.00,,,-99.99,,2013-03-16 11:31:00,
2013-03-16 05:42:00,33.0,30.0,-100.00,South,184,4.0,6.0,90,0.00,,,-99.99,,2013-03-16 11:42:00,
2013-03-16 05:51:00,33.0,30.0,-100.00,SSW,192,3.0,4.0,89,0.00,,,-99.99,,2013-03-16 11:51:00,
2013-03-16 06:01:00,33.0,30.0,-100.00,South,184,3.0,4.0,89,0.00,,,-99.99,,2013-03-16 12:01:00,
2013-03-16 06:21:00,33.0,30.0,-100.00,South,184,2.0,4.0,89,0.00,,,-99.99,,2013-03-16 12:21:00,
2013-03-16 06:31:00,33.0,29.0,-100.00,South,179,1.0,3.0,88,0.00,,,-99.99,,2013-03-16 12:31:00,
2013-03-16 06:42:00,31.0,29.0,-100.00,NE,37,1.0,1.0,91,0.00,,,-99.99,,2013-03-16 12:42:00,
2013-03-16 06:52:00,31.0,29.0,-100.00,NE,34,0.0,1.0,92,0.00,,,-99.99,,2013-03-16 12:52:00,
2013-03-16 07:02:00,31.0,29.0,-100.00,NNE,18,1.0,2.0,93,0.00,,,-99.99,,2013-03-16 13:02:00,
2013-03-16 07:11:00,31.0,29.0,-100.00,North,4,1.0,3.0,93,0.00,,,-99.99,,2013-03-16 13:11:00,
2013-03-16 07:21:00,29.0,28.0,-100.00,NNE,21,4.0,9.0,98,0.00,,,-99.99,,2013-03-16 13:21:00,
2013-03-16 07:31:00,28.0,28.0,-100.00,NNE,31,7.0,11.0,100,0.00,,,-99.99,,2013-03-16 13:31:00,
2013-03-16 07:41:00,28.0,28.0,-100.00,NNE,31,6.0,9.0,100,0.00,,,-99.99,,2013-03-16 13:41:00,
2013-03-16 07:52:00,28.0,28.0,-100.00,NE,38,5.0,9.0,100,0.00,,,-99.99,,2013-03-16 13:52:00,
2013-03-16 08:01:00,27.0,27.0,-100.00,North,11,3.0,6.0,100,0.00,,,-99.99,,2013-03-16 14:01:00,
2013-03-16 08:11:00,28.0,27.0,-100.00,North,354,2.0,6.0,100,0.01,,,-99.99,,2013-03-16 14:11:00,
2013-03-16 08:31:00,28.0,28.0,-100.00,NNE,21,4.0,6.0,100,0.00,,,-99.99,,2013-03-16 14:31:00,
2013-03-16 08:41:00,28.0,28.0,-100.00,North,8,4.0,7.0,100,0.00,,,-99.99,,2013-03-16 14:41:00,
2013-03-16 08:51:00,28.0,28.0,-100.00,NNE,16,6.0,9.0,100,0.00,,,-99.99,,2013-03-16 14:51:00,
2013-03-16 09:02:00,28.0,28.0,-100.00,NNE,25,7.0,10.0,100,0.01,,,-99.99,,2013-03-16 15:02:00,
2013-03-16 09:21:00,28.0,28.0,-100.00,North,10,7.0,10.0,100,0.01,,,-99.99,,2013-03-16 15:21:00,
2013-03-16 09:32:00,29.0,29.0,-100.00,North,359,5.0,7.0,100,0.01,,,-99.99,,2013-03-16 15:32:00,
2013-03-16 09:42:00,29.0,29.0,-100.00,North,354,4.0,7.0,100,0.01,,,-99.99,,2013-03-16 15:42:00,
2013-03-16 09:52:00,29.0,29.0,-100.00,North,350,5.0,7.0,100,0.00,,,-99.99,,2013-03-16 15:52:00,
2013-03-16 10:02:00,29.0,29.0,-100.00,North,350,4.0,7.0,100,0.00,,,-99.99,,2013-03-16 16:02:00,
2013-03-16 10:12:00,29.0,29.0,-100.00,North,352,4.0,7.0,100,0.00,,,-99.99,,2013-03-16 16:12:00,
2013-03-16 10:22:00,29.0,29.0,-100.00,NNW,342,4.0,7.0,100,0.00,,,-99.99,,2013-03-16 16:22:00,
2013-03-16 10:32:00,30.0,30.0,-100.00,NNW,342,3.0,6.0,100,0.00,,,-99.99,,2013-03-16 16:32:00,
2013-03-16 10:42:00,30.0,30.0,-100.00,North,3,4.0,7.0,100,0.00,,,-99.99,,2013-03-16 16:42:00,
2013-03-16 10:52:00,30.0,30.0,-100.00,NNE,21,4.0,7.0,100,0.00,,,-99.99,,2013-03-16 16:52:00,
2013-03-16 11:02:00,30.0,30.0,-100.00,NNE,17,5.0,7.0,100,0.00,,,-99.99,,2013-03-16 17:02:00,
2013-03-16 11:12:00,31.0,30.0,-100.00,NNE,18,6.0,7.0,100,0.00,,,-99.99,,2013-03-16 17:12:00,
2013-03-16 11:22:00,32.0,31.0,-100.00,North,4,4.0,7.0,96,0.00,,,-99.99,,2013-03-16 17:22:00,
2013-03-16 11:32:00,33.0,31.0,-100.00,North,359,4.0,7.0,94,0.00,,,-99.99,,2013-03-16 17:32:00,
2013-03-16 11:41:00,32.0,31.0,-100.00,NNE,30,6.0,8.0,95,0.00,,,-99.99,,2013-03-16 17:41:00,
2013-03-16 11:52:00,33.0,31.0,-100.00,NNE,30,7.0,9.0,93,0.00,,,-99.99,,2013-03-16 17:52:00,
2013-03-16 12:01:00,33.0,31.0,-100.00,NE,34,6.0,9.0,91,0.00,,,-99.99,,2013-03-16 18:01:00,
2013-03-16 12:21:00,37.0,32.0,-100.00,NNE,17,2.0,4.0,81,0.00,,,-99.99,,2013-03-16 18:21:00,
2013-03-16 12:31:00,38.0,32.0,-100.00,NNE,30,2.0,4.0,81,0.00,,,-99.99,,2013-03-16 18:31:00,
2013-03-16 12:42:00,39.0,32.0,-100.00,NE,42,2.0,4.0,75,0.00,,,-99.99,,2013-03-16 18:42:00,
2013-03-16 12:51:00,41.0,32.0,-100.00,ESE,112,1.0,3.0,69,0.00,,,-99.99,,2013-03-16 18:51:00,
2013-03-16 13:01:00,41.0,31.0,-100.00,SSW,212,1.0,3.0,69,0.00,,,-99.99,,2013-03-16 19:01:00,
2013-03-16 13:11:00,42.0,32.0,-100.00,West,277,1.0,3.0,68,0.00,,,-99.99,,2013-03-16 19:11:00,
2013-03-16 13:21:00,43.0,32.0,-100.00,NNE,31,3.0,6.0,65,0.00,,,-99.99,,2013-03-16 19:21:00,
2013-03-16 13:31:00,45.0,33.0,-100.00,NE,55,3.0,6.0,65,0.00,,,-99.99,,2013-03-16 19:31:00,
2013-03-16 13:42:00,47.0,32.0,-100.00,ENE,65,2.0,6.0,56,0.00,,,-99.99,,2013-03-16 19:42:00,
2013-03-16 13:52:00,47.0,31.0,-100.00,North,6,2.0,11.0,54,0.00,,,-99.99,,2013-03-16 19:52:00,
2013-03-16 14:02:00,47.0,26.0,-100.00,NW,319,7.0,15.0,42,0.00,,,-99.99,,2013-03-16 20:02:00,
2013-03-16 14:11:00,47.0,27.0,-100.00,NW,322,7.0,14.0,45,0.00,,,-99.99,,2013-03-16 20:11:00,
2013-03-16 14:21:00,48.0,24.0,-100.00,NW,323,8.0,14.0,39,0.00,,,-99.99,,2013-03-16 20:21:00,
2013-03-16 14:31:00,48.0,26.0,-100.00,NW,316,11.0,19.0,42,0.00,,,-99.99,,2013-03-16 20:31:00,
2013-03-16 14:41:00,47.0,25.0,-100.00,NW,318,12.0,24.0,41,0.00,,,-99.99,,2013-03-16 20:41:00,
2013-03-16 14:51:00,47.0,28.0,-100.00,NW,309,12.0,21.0,47,0.00,,,-99.99,,2013-03-16 20:51:00,
2013-03-16 15:01:00,46.0,26.0,-100.00,NW,313,10.0,16.0,46,0.00,,,-99.99,,2013-03-16 21:01:00,
2013-03-16 15:11:00,47.0,26.0,-100.00,NW,316,11.0,19.0,44,0.00,,,-99.99,,2013-03-16 21:11:00,
2013-03-16 15:22:00,47.0,27.0,-100.00,WNW,296,11.0,16.0,46,0.00,,,-99.99,,2013-03-16 21:22:00,
2013-03-16 15:32:00,47.0,26.0,-100.00,WNW,302,11.0,19.0,45,0.00,,,-99.99,,2013-03-16 21:32:00,
2013-03-16 15:42:00,47.0,27.0,-100.00,WNW,301,10.0,14.0,44,0.00,,,-99.99,,2013-03-16 21:42:00,
2013-03-16 15:52:00,46.0,27.0,-100.00,NW,313,9.0,14.0,48,0.00,,,-99.99,,2013-03-16 21:52:00,
2013-03-16 16:02:00,47.0,29.0,-100.00,NW,318,9.0,14.0,48,0.00,,,-99.99,,2013-03-16 22:02:00,
2013-03-16 16:12:00,47.0,28.0,-100.00,NW,322,8.0,14.0,47,0.00,,,-99.99,,2013-03-16 22:12:00,
2013-03-16 16:22:00,47.0,27.0,-100.00,NW,322,9.0,16.0,46,0.00,,,-99.99,,2013-03-16 22:22:00,
2013-03-16 16:32:00,47.0,27.0,-100.00,NNW,332,7.0,12.0,45,0.00,,,-99.99,,2013-03-16 22:32:00,
2013-03-16 16:41:00,47.0,27.0,-100.00,NNW,328,7.0,12.0,46,0.00,,,-99.99,,2013-03-16 22:41:00,
2013-03-16 16:52:00,47.0,27.0,-100.00,NNW,335,6.0,12.0,45,0.00,,,-99.99,,2013-03-16 22:52:00,
2013-03-16 17:01:00,47.0,27.0,-100.00,NW,320,6.0,13.0,45,0.00,,,-99.99,,2013-03-16 23:01:00,
2013-03-16 17:12:00,47.0,27.0,-100.00,NW,311,8.0,11.0,46,0.00,,,-99.99,,2013-03-16 23:12:00,
2013-03-16 17:22:00,47.0,27.0,-100.00,NW,311,3.0,7.0,47,0.00,,,-99.99,,2013-03-16 23:22:00,
2013-03-16 17:32:00,45.0,28.0,-100.00,North,1,4.0,9.0,50,0.00,,,-99.99,,2013-03-16 23:32:00,
2013-03-16 17:41:00,44.0,29.0,-100.00,NE,40,6.0,9.0,56,0.00,,,-99.99,,2013-03-16 23:41:00,
2013-03-16 17:51:00,44.0,29.0,-100.00,NE,35,6.0,8.0,56,0.00,,,-99.99,,2013-03-16 23:51:00,
2013-03-16 18:01:00,44.0,28.0,-100.00,NE,37,6.0,7.0,55,0.00,,,-99.99,,2013-03-17 00:01:00,
2013-03-16 18:11:00,43.0,29.0,-100.00,NE,42,6.0,7.0,56,0.00,,,-99.99,,2013-03-17 00:11:00,
2013-03-16 18:21:00,43.0,29.0,-100.00,NE,52,6.0,7.0,57,0.00,,,-99.99,,2013-03-17 00:21:00,
2013-03-16 18:31:00,44.0,29.0,-100.00,ENE,64,4.0,6.0,55,0.00,,,-99.99,,2013-03-17 00:31:00,
2013-03-16 18:42:00,45.0,27.0,-100.00,East,85,4.0,6.0,50,0.00,,,-99.99,,2013-03-17 00:42:00,
2013-03-16 18:51:00,45.0,27.0,-100.00,East,92,4.0,6.0,49,0.00,,,-99.99,,2013-03-17 00:51:00,
2013-03-16 19:01:00,45.0,28.0,-100.00,ESE,106,3.0,4.0,51,0.00,,,-99.99,,2013-03-17 01:01:00,
2013-03-16 19:11:00,44.0,28.0,-100.00,ESE,104,4.0,5.0,53,0.00,,,-99.99,,2013-03-17 01:11:00,
2013-03-16 19:21:00,42.0,29.0,-100.00,ESE,102,4.0,6.0,58,0.00,,,-99.99,,2013-03-17 01:21:00,
2013-03-16 19:31:00,42.0,28.0,-100.00,ESE,103,4.0,6.0,59,0.00,,,-99.99,,2013-03-17 01:31:00,
2013-03-16 19:41:00,41.0,28.0,-100.00,East,96,4.0,6.0,60,0.00,,,-99.99,,2013-03-17 01:41:00,
2013-03-16 19:52:00,40.0,28.0,-100.00,ESE,110,4.0,4.0,62,0.00,,,-99.99,,2013-03-17 01:52:00,
2013-03-16 20:02:00,40.0,28.0,-100.00,ESE,109,4.0,7.0,63,0.00,,,-99.99,,2013-03-17 02:02:00,
2013-03-16 20:11:00,40.0,28.0,-100.00,ESE,103,6.0,7.0,62,0.00,,,-99.99,,2013-03-17 02:11:00,
2013-03-16 20:21:00,39.0,28.0,-100.00,East,93,4.0,6.0,66,0.00,,,-99.99,,2013-03-17 02:21:00,
2013-03-16 20:31:00,39.0,27.0,-100.00,ESE,102,6.0,7.0,63,0.00,,,-99.99,,2013-03-17 02:31:00,
2013-03-16 20:41:00,38.0,28.0,-100.00,ESE,103,6.0,8.0,67,0.00,,,-99.99,,2013-03-17 02:41:00,
2013-03-16 20:52:00,36.0,28.0,-100.00,ESE,114,6.0,7.0,71,0.00,,,-99.99,,2013-03-17 02:52:00,
2013-03-16 21:01:00,37.0,28.0,-100.00,ESE,114,6.0,7.0,72,0.00,,,-99.99,,2013-03-17 03:01:00,
2013-03-16 21:11:00,37.0,29.0,-100.00,ESE,109,6.0,9.0,71,0.00,,,-99.99,,2013-03-17 03:11:00,
2013-03-16 21:21:00,37.0,29.0,-100.00,ESE,112,7.0,9.0,75,0.00,,,-99.99,,2013-03-17 03:21:00,
2013-03-16 21:32:00,36.0,29.0,-100.00,ESE,103,6.0,7.0,76,0.00,,,-99.99,,2013-03-17 03:32:00,
2013-03-16 21:42:00,36.0,29.0,-100.00,ESE,102,6.0,7.0,77,0.00,,,-99.99,,2013-03-17 03:42:00,
2013-03-16 21:52:00,35.0,29.0,-100.00,East,100,6.0,7.0,78,0.00,,,-99.99,,2013-03-17 03:52:00,
2013-03-16 22:02:00,35.0,29.0,-100.00,ESE,114,5.0,7.0,80,0.00,,,-99.99,,2013-03-17 04:02:00,
2013-03-16 22:12:00,35.0,29.0,-100.00,ESE,119,5.0,7.0,79,0.00,,,-99.99,,2013-03-17 04:12:00,
2013-03-16 22:22:00,34.0,29.0,-100.00,East,96,7.0,9.0,81,0.00,,,-99.99,,2013-03-17 04:22:00,
2013-03-16 22:32:00,35.0,29.0,-100.00,East,95,7.0,9.0,79,0.00,,,-99.99,,2013-03-17 04:32:00,
2013-03-16 22:42:00,35.0,29.0,-100.00,East,97,7.0,9.0,80,0.00,,,-99.99,,2013-03-17 04:42:00,
2013-03-16 22:52:00,35.0,29.0,-100.00,East,90,10.0,14.0,77,0.00,,,-99.99,,2013-03-17 04:52:00,
2013-03-16 23:02:00,36.0,28.0,-100.00,SE,143,6.0,7.0,73,0.00,,,-99.99,,2013-03-17 05:02:00,
2013-03-16 23:11:00,35.0,28.0,-100.00,SE,130,6.0,7.0,76,0.00,,,-99.99,,2013-03-17 05:11:00,
2013-03-16 23:21:00,36.0,28.0,-100.00,SE,126,7.0,13.0,70,0.00,,,-99.99,,2013-03-17 05:21:00,
2013-03-16 23:32:00,38.0,27.0,-100.00,SSE,164,8.0,12.0,67,0.00,,,-99.99,,2013-03-17 05:32:00,
2013-03-16 23:42:00,38.0,28.0,-100.00,SE,133,11.0,16.0,66,0.00,,,-99.99,,2013-03-17 05:42:00,
2013-03-16 23:51:00,35.0,28.0,-100.00,SE,144,9.0,14.0,75,0.00,,,-99.99,,2013-03-17 05:51:00,